createdAt,value
2022-10-12T00:00:53.107Z,17.50
2022-10-12T00:03:22.936Z,17.50
2022-10-12T00:06:02.649Z,17.50
2022-10-12T00:08:31.244Z,17.50
2022-10-12T00:10:59.772Z,17.40
2022-10-12T00:13:28.576Z,17.40
2022-10-12T00:15:56.954Z,17.40
2022-10-12T00:18:26.595Z,17.40
2022-10-12T00:21:02.553Z,17.40
2022-10-12T00:23:31.500Z,17.40
2022-10-12T00:26:03.364Z,17.40
2022-10-12T00:28:31.787Z,17.40
2022-10-12T00:31:00.445Z,17.40
2022-10-12T00:33:30.895Z,17.40
2022-10-12T00:35:59.179Z,17.30
2022-10-12T00:38:27.373Z,17.30
2022-10-12T00:40:55.603Z,17.30
2022-10-12T00:43:30.051Z,17.30
2022-10-12T00:46:00.358Z,17.30
2022-10-12T00:48:30.602Z,17.30
2022-10-12T00:51:01.609Z,17.30
2022-10-12T00:53:35.195Z,17.30
2022-10-12T00:56:05.850Z,17.30
2022-10-12T00:58:34.795Z,17.30
2022-10-12T01:01:03.590Z,17.30
2022-10-12T01:03:33.791Z,17.20
2022-10-12T01:06:02.050Z,17.20
2022-10-12T01:08:30.386Z,17.20
2022-10-12T01:10:58.905Z,17.20
2022-10-12T01:13:27.343Z,17.20
2022-10-12T01:16:00.827Z,17.20
2022-10-12T01:18:35.472Z,17.20
2022-10-12T01:21:13.018Z,17.20
2022-10-12T01:24:09.527Z,17.20
2022-10-12T01:27:14.519Z,17.20
2022-10-12T01:30:15.879Z,17.20
2022-10-12T01:33:15.399Z,17.20
2022-10-12T01:35:49.976Z,17.10
2022-10-12T01:38:28.810Z,17.10
2022-10-12T01:41:03.227Z,17.10
2022-10-12T01:43:38.673Z,17.10
2022-10-12T01:46:28.345Z,17.10
2022-10-12T01:48:59.317Z,17.10
2022-10-12T01:51:35.558Z,17.10
2022-10-12T01:54:12.057Z,17.00
2022-10-12T01:56:47.893Z,17.00
2022-10-12T01:59:21.451Z,17.00
2022-10-12T02:01:55.597Z,17.00
2022-10-12T02:04:33.890Z,17.00
2022-10-12T02:07:06.914Z,17.00
2022-10-12T02:09:36.953Z,17.00
2022-10-12T02:12:10.652Z,17.00
2022-10-12T02:14:43.294Z,17.00
2022-10-12T02:17:15.655Z,17.00
2022-10-12T02:19:49.396Z,17.00
2022-10-12T02:22:19.088Z,17.00
2022-10-12T02:24:52.073Z,16.90
2022-10-12T02:27:22.297Z,16.90
2022-10-12T02:29:51.066Z,16.90
2022-10-12T02:32:28.847Z,16.90
2022-10-12T02:35:00.626Z,16.90
2022-10-12T02:37:36.167Z,16.90
2022-10-12T02:40:11.187Z,16.90
2022-10-12T02:43:08.811Z,16.90
2022-10-12T02:45:34.088Z,16.80
2022-10-12T02:48:05.926Z,16.80
2022-10-12T02:50:35.618Z,16.80
2022-10-12T02:53:04.351Z,16.80
2022-10-12T02:55:32.847Z,16.80
2022-10-12T02:58:00.971Z,16.80
2022-10-12T03:00:29.545Z,16.80
2022-10-12T03:02:57.659Z,16.80
2022-10-12T03:05:27.229Z,16.80
2022-10-12T03:07:55.360Z,16.80
2022-10-12T03:10:23.488Z,16.80
2022-10-12T03:12:51.621Z,16.80
2022-10-12T03:15:20.056Z,16.80
2022-10-12T03:17:48.159Z,16.80
2022-10-12T03:20:16.461Z,16.70
2022-10-12T03:22:45.927Z,16.70
2022-10-12T03:25:14.183Z,16.70
2022-10-12T03:27:42.423Z,16.70
2022-10-12T03:30:12.193Z,16.70
2022-10-12T03:32:40.958Z,16.70
2022-10-12T03:35:10.135Z,16.70
2022-10-12T03:37:38.402Z,16.70
2022-10-12T03:40:10.153Z,16.60
2022-10-12T03:42:38.351Z,16.60
2022-10-12T03:45:07.068Z,16.60
2022-10-12T03:47:35.338Z,16.60
2022-10-12T03:50:03.899Z,16.60
2022-10-12T03:52:32.285Z,16.60
2022-10-12T03:55:00.421Z,16.60
2022-10-12T03:57:29.973Z,16.50
2022-10-12T03:59:58.116Z,16.50
2022-10-12T04:02:26.357Z,16.50
2022-10-12T04:04:54.655Z,16.50
2022-10-12T04:07:22.917Z,16.50
2022-10-12T04:09:51.143Z,16.50
2022-10-12T04:12:19.369Z,16.50
2022-10-12T04:14:48.875Z,16.40
2022-10-12T04:17:17.661Z,16.40
2022-10-12T04:19:46.109Z,16.40
2022-10-12T04:22:14.291Z,16.40
2022-10-12T04:24:42.580Z,16.40
2022-10-12T04:27:11.044Z,16.40
2022-10-12T04:29:39.440Z,16.30
2022-10-12T04:32:12.557Z,16.30
2022-10-12T04:34:41.386Z,16.30
2022-10-12T04:37:09.570Z,16.30
2022-10-12T04:39:37.779Z,16.30
2022-10-12T04:42:06.923Z,16.30
2022-10-12T04:44:35.161Z,16.30
2022-10-12T04:47:04.451Z,16.30
2022-10-12T04:49:34.153Z,16.30
2022-10-12T04:52:02.397Z,16.20
2022-10-12T04:54:32.719Z,16.20
2022-10-12T04:57:00.852Z,16.20
2022-10-12T04:59:28.993Z,16.20
2022-10-12T05:01:57.228Z,16.20
2022-10-12T05:04:25.541Z,16.20
2022-10-12T05:06:55.116Z,16.20
2022-10-12T05:09:23.432Z,16.10
2022-10-12T05:11:51.555Z,16.20
2022-10-12T05:14:19.698Z,16.20
2022-10-12T05:16:48.126Z,16.20
2022-10-12T05:19:16.193Z,16.10
2022-10-12T05:21:44.381Z,16.10
2022-10-12T05:24:14.190Z,16.20
2022-10-12T05:26:42.450Z,16.10
2022-10-12T05:29:11.156Z,16.20
2022-10-12T05:31:39.317Z,16.10
2022-10-12T05:34:07.487Z,16.10
2022-10-12T05:36:35.740Z,16.20
2022-10-12T05:39:04.072Z,16.10
2022-10-12T05:41:33.561Z,16.10
2022-10-12T05:44:02.877Z,16.10
2022-10-12T05:46:31.093Z,16.10
2022-10-12T05:48:59.253Z,16.10
2022-10-12T05:51:28.992Z,16.20
2022-10-12T05:53:57.442Z,16.10
2022-10-12T05:56:25.691Z,16.10
2022-10-12T05:58:55.321Z,16.10
2022-10-12T06:01:23.518Z,16.20
2022-10-12T06:03:51.948Z,16.20
2022-10-12T06:06:20.257Z,16.10
2022-10-12T06:08:48.540Z,16.10
2022-10-12T06:11:16.905Z,16.20
2022-10-12T06:13:45.094Z,16.20
2022-10-12T06:16:14.674Z,16.20
2022-10-12T06:18:43.060Z,16.20
2022-10-12T06:23:59.391Z,16.20
2022-10-12T06:26:27.461Z,16.20
2022-10-12T06:28:55.822Z,16.20
2022-10-12T06:31:25.442Z,16.20
2022-10-12T06:33:53.574Z,16.20
2022-10-12T06:36:23.594Z,16.20
2022-10-12T06:38:51.879Z,16.30
2022-10-12T06:41:20.148Z,16.30
2022-10-12T06:43:48.260Z,16.30
2022-10-12T06:46:16.697Z,16.30
2022-10-12T06:48:46.291Z,16.30
2022-10-12T06:51:14.528Z,16.30
2022-10-12T06:53:42.735Z,16.30
2022-10-12T06:56:12.303Z,16.30
2022-10-12T06:58:40.692Z,16.30
2022-10-12T07:01:11.128Z,16.30
2022-10-12T07:03:39.470Z,16.30
2022-10-12T07:06:11.049Z,16.30
2022-10-12T07:08:41.260Z,16.30
2022-10-12T07:11:11.506Z,16.30
2022-10-12T07:13:39.911Z,16.20
2022-10-12T07:16:08.996Z,16.20
2022-10-12T07:18:37.216Z,16.20
2022-10-12T07:21:05.628Z,16.30
2022-10-12T07:23:40.166Z,16.30
2022-10-12T07:26:11.081Z,16.30
2022-10-12T07:28:39.361Z,16.30
2022-10-12T07:31:09.901Z,16.30
2022-10-12T07:33:39.804Z,16.40
2022-10-12T07:36:20.926Z,16.50
2022-10-12T07:38:51.682Z,16.50
2022-10-12T07:41:20.023Z,16.60
2022-10-12T07:43:48.489Z,16.70
2022-10-12T07:46:16.583Z,16.80
2022-10-12T07:48:49.956Z,16.90
2022-10-12T07:51:18.859Z,16.90
2022-10-12T07:53:47.191Z,17.00
2022-10-12T07:56:16.815Z,17.00
2022-10-12T07:58:48.842Z,17.10
2022-10-12T08:01:17.703Z,17.10
2022-10-12T08:03:46.060Z,17.20
2022-10-12T08:06:15.777Z,17.20
2022-10-12T08:08:44.515Z,17.20
2022-10-12T08:11:14.030Z,17.30
2022-10-12T08:13:44.229Z,17.30
2022-10-12T08:16:15.045Z,17.30
2022-10-12T08:18:44.384Z,17.30
2022-10-12T08:21:14.329Z,17.40
2022-10-12T08:23:44.473Z,17.40
2022-10-12T08:26:13.503Z,17.40
2022-10-12T08:28:43.587Z,17.40
2022-10-12T08:31:14.225Z,17.50
2022-10-12T08:33:42.487Z,17.50
2022-10-12T08:36:12.693Z,17.50
2022-10-12T08:38:43.215Z,17.50
2022-10-12T08:41:32.736Z,17.60
2022-10-12T08:44:42.407Z,17.60
2022-10-12T08:47:16.628Z,17.60
2022-10-12T08:49:49.939Z,17.70
2022-10-12T08:52:25.710Z,17.70
2022-10-12T08:54:54.704Z,17.80
2022-10-12T08:57:22.809Z,17.80
2022-10-12T08:59:51.031Z,17.80
2022-10-12T09:02:40.769Z,17.80
2022-10-12T09:05:11.967Z,17.90
2022-10-12T09:07:43.303Z,17.90
2022-10-12T09:10:28.148Z,18.00
2022-10-12T09:13:03.179Z,18.00
2022-10-12T09:15:34.853Z,18.00
2022-10-12T09:18:13.059Z,18.00
2022-10-12T09:20:46.935Z,18.00
2022-10-12T09:23:25.443Z,18.10
2022-10-12T09:25:56.064Z,18.10
2022-10-12T09:28:30.037Z,18.10
2022-10-12T09:31:07.985Z,18.10
2022-10-12T09:33:42.365Z,18.10
2022-10-12T09:36:13.889Z,18.10
2022-10-12T09:38:42.034Z,18.10
2022-10-12T09:41:21.649Z,18.20
2022-10-12T09:43:52.227Z,18.20
2022-10-12T09:46:24.270Z,18.20
2022-10-12T09:49:00.827Z,18.20
2022-10-12T09:51:30.719Z,18.30
2022-10-12T09:54:03.549Z,18.30
2022-10-12T09:56:39.961Z,18.30
2022-10-12T09:59:19.291Z,18.30
2022-10-12T10:02:00.002Z,18.40
2022-10-12T10:04:29.849Z,18.50
2022-10-12T10:07:15.160Z,18.50
2022-10-12T10:09:43.230Z,18.50
2022-10-12T10:12:22.695Z,18.50
2022-10-12T10:14:52.205Z,18.60
2022-10-12T10:17:26.583Z,18.60
2022-10-12T10:19:58.381Z,18.70
2022-10-12T10:22:27.029Z,18.60
2022-10-12T10:25:00.138Z,18.70
2022-10-12T10:27:39.452Z,18.70
2022-10-12T10:30:40.913Z,18.70
2022-10-12T10:33:18.161Z,18.70
2022-10-12T10:36:19.755Z,18.60
2022-10-12T10:38:59.182Z,18.60
2022-10-12T10:41:32.212Z,18.60
2022-10-12T10:44:00.517Z,18.60
2022-10-12T10:46:31.299Z,18.70
2022-10-12T10:49:06.422Z,18.70
2022-10-12T10:51:48.171Z,18.80
2022-10-12T10:54:18.468Z,18.80
2022-10-12T10:56:47.972Z,18.80
2022-10-12T10:59:22.285Z,18.80
2022-10-12T11:01:55.396Z,18.90
2022-10-12T11:04:30.452Z,18.90
2022-10-12T11:07:06.111Z,18.90
2022-10-12T11:09:42.483Z,18.90
2022-10-12T11:12:16.451Z,18.90
2022-10-12T11:14:46.939Z,19.00
2022-10-12T11:17:20.817Z,19.00
2022-10-12T11:19:53.062Z,19.00
2022-10-12T11:22:26.903Z,19.10
2022-10-12T11:25:03.356Z,19.10
2022-10-12T11:27:37.533Z,19.10
2022-10-12T11:30:14.765Z,19.20
2022-10-12T11:32:45.576Z,19.20
2022-10-12T11:35:17.485Z,19.20
2022-10-12T11:37:52.867Z,19.30
2022-10-12T11:40:47.740Z,19.30
2022-10-12T11:43:21.231Z,19.30
2022-10-12T11:45:54.159Z,19.30
2022-10-12T11:48:27.546Z,19.40
2022-10-12T11:51:02.821Z,19.50
2022-10-12T11:53:41.873Z,19.40
2022-10-12T11:56:15.891Z,19.50
2022-10-12T11:59:00.561Z,19.50
2022-10-12T12:01:46.586Z,19.50
2022-10-12T12:04:47.386Z,19.60
2022-10-12T12:07:42.753Z,19.60
2022-10-12T12:10:51.689Z,19.60
2022-10-12T12:13:23.600Z,19.70
2022-10-12T12:16:36.903Z,19.70
2022-10-12T12:19:38.833Z,19.80
2022-10-12T12:22:24.621Z,19.80
2022-10-12T12:24:55.827Z,19.90
2022-10-12T12:27:32.700Z,19.90
2022-10-12T12:30:03.448Z,20.00
2022-10-12T12:32:45.690Z,20.00
2022-10-12T12:35:23.601Z,20.00
2022-10-12T12:38:20.403Z,20.10
2022-10-12T12:41:04.626Z,20.10
2022-10-12T12:43:59.483Z,20.00
2022-10-12T12:50:02.448Z,20.10
2022-10-12T12:52:33.689Z,20.10
2022-10-12T12:55:34.370Z,20.10
2022-10-12T12:58:35.747Z,20.10
2022-10-12T13:01:23.657Z,20.20
2022-10-12T13:04:11.685Z,20.30
2022-10-12T13:07:09.141Z,20.30
2022-10-12T13:09:57.144Z,20.30
2022-10-12T13:12:54.651Z,20.20
2022-10-12T13:15:46.966Z,20.30
2022-10-12T13:18:47.678Z,20.30
2022-10-12T13:21:20.043Z,20.40
2022-10-12T13:23:51.266Z,20.40
2022-10-12T13:26:24.502Z,20.30
2022-10-12T13:28:53.672Z,20.30
2022-10-12T13:31:27.265Z,20.30
2022-10-12T13:34:04.646Z,20.30
2022-10-12T13:36:36.212Z,20.40
2022-10-12T13:39:15.299Z,20.40
2022-10-12T13:41:44.467Z,20.50
2022-10-12T13:44:22.007Z,20.50
2022-10-12T13:46:52.152Z,20.60
2022-10-12T13:49:23.811Z,20.60
2022-10-12T13:51:54.671Z,20.60
2022-10-12T13:54:25.070Z,20.60
2022-10-12T13:56:58.479Z,20.60
2022-10-12T13:59:28.181Z,20.60
2022-10-12T14:02:00.642Z,20.60
2022-10-12T14:04:31.987Z,20.60
2022-10-12T14:07:03.149Z,20.60
2022-10-12T14:09:40.685Z,20.60
2022-10-12T14:12:10.697Z,20.60
2022-10-12T14:14:40.805Z,20.60
2022-10-12T14:17:13.749Z,20.60
2022-10-12T14:19:48.012Z,20.60
2022-10-12T14:22:22.432Z,20.70
2022-10-12T14:24:51.151Z,20.70
2022-10-12T14:27:25.192Z,20.70
2022-10-12T14:29:57.983Z,20.70
2022-10-12T14:32:42.200Z,20.70
2022-10-12T14:35:20.405Z,20.80
2022-10-12T14:37:49.392Z,20.70
2022-10-12T14:40:39.784Z,20.70
2022-10-12T14:43:21.622Z,20.70
2022-10-12T14:45:51.007Z,20.70
2022-10-12T14:48:22.866Z,20.70
2022-10-12T14:50:59.089Z,20.70
2022-10-12T14:53:29.584Z,20.70
2022-10-12T14:55:58.077Z,20.70
2022-10-12T14:58:26.298Z,20.70
2022-10-12T15:00:54.562Z,20.60
2022-10-12T15:03:22.825Z,20.70
2022-10-12T15:05:52.323Z,20.70
2022-10-12T15:08:20.466Z,20.70
2022-10-12T15:10:51.838Z,20.70
2022-10-12T15:13:20.007Z,20.60
2022-10-12T15:15:49.634Z,20.70
2022-10-12T15:18:17.872Z,20.60
2022-10-12T15:20:49.317Z,20.60
2022-10-12T15:23:19.405Z,20.60
2022-10-12T15:25:51.509Z,20.60
2022-10-12T15:28:20.605Z,20.60
2022-10-12T15:31:15.364Z,20.60
2022-10-12T15:33:37.714Z,20.60
2022-10-12T15:36:06.017Z,20.60
2022-10-12T15:38:35.811Z,20.60
2022-10-12T15:41:04.255Z,20.70
2022-10-12T15:43:33.821Z,20.70
2022-10-12T15:46:04.063Z,20.70
2022-10-12T15:48:32.190Z,20.60
2022-10-12T15:51:00.347Z,20.60
2022-10-12T15:53:28.461Z,20.60
2022-10-12T15:55:58.064Z,20.70
2022-10-12T15:58:26.193Z,20.70
2022-10-12T16:00:56.517Z,20.60
2022-10-12T16:03:27.988Z,20.60
2022-10-12T16:05:56.123Z,20.60
2022-10-12T16:08:24.616Z,20.60
2022-10-12T16:10:52.885Z,20.50
2022-10-12T16:13:22.452Z,20.50
2022-10-12T16:15:50.718Z,20.60
2022-10-12T16:18:18.884Z,20.60
2022-10-12T16:20:52.705Z,20.60
2022-10-12T16:23:25.965Z,20.50
2022-10-12T16:25:54.517Z,20.60
2022-10-12T16:28:24.679Z,20.50
2022-10-12T16:30:53.255Z,20.60
2022-10-12T16:33:21.956Z,20.60
2022-10-12T16:35:50.023Z,20.60
2022-10-12T16:38:20.258Z,20.60
2022-10-12T16:40:49.984Z,20.50
2022-10-12T16:43:19.453Z,20.50
2022-10-12T16:45:56.343Z,20.50
2022-10-12T16:48:24.528Z,20.50
2022-10-12T16:50:52.691Z,20.50
2022-10-12T16:53:20.796Z,20.50
2022-10-12T16:55:49.100Z,20.50
2022-10-12T16:58:17.311Z,20.40
2022-10-12T17:00:45.513Z,20.40
2022-10-12T17:03:15.131Z,20.40
2022-10-12T17:05:43.467Z,20.40
2022-10-12T17:08:15.299Z,20.30
2022-10-12T17:10:44.991Z,20.30
2022-10-12T17:13:14.487Z,20.30
2022-10-12T17:15:43.157Z,20.30
2022-10-12T17:18:11.572Z,20.30
2022-10-12T17:20:41.151Z,20.30
2022-10-12T17:23:09.424Z,20.30
2022-10-12T17:25:37.631Z,20.20
2022-10-12T17:28:05.986Z,20.20
2022-10-12T17:30:38.372Z,20.20
2022-10-12T17:33:06.531Z,20.10
2022-10-12T17:35:34.680Z,20.10
2022-10-12T17:38:04.321Z,20.10
2022-10-12T17:40:32.439Z,20.10
2022-10-12T17:43:00.593Z,20.00
2022-10-12T17:45:28.896Z,20.10
2022-10-12T17:47:57.071Z,20.00
2022-10-12T17:50:25.195Z,20.00
2022-10-12T17:52:53.361Z,20.00
2022-10-12T17:55:43.778Z,20.00
2022-10-12T17:58:11.036Z,20.00
2022-10-12T18:00:39.242Z,19.90
2022-10-12T18:03:07.520Z,19.90
2022-10-12T18:05:35.936Z,19.90
2022-10-12T18:08:04.206Z,19.80
2022-10-12T18:10:33.747Z,19.80
2022-10-12T18:13:01.893Z,19.80
2022-10-12T18:15:30.110Z,19.80
2022-10-12T18:17:58.274Z,19.80
2022-10-12T18:20:26.697Z,19.80
2022-10-12T18:22:55.426Z,19.70
2022-10-12T18:25:23.531Z,19.70
2022-10-12T18:27:53.065Z,19.70
2022-10-12T18:30:21.191Z,19.60
2022-10-12T18:32:49.332Z,19.60
2022-10-12T18:35:17.539Z,19.60
2022-10-12T18:37:45.891Z,19.60
2022-10-12T18:40:14.238Z,19.60
2022-10-12T18:42:42.434Z,19.50
2022-10-12T18:45:12.883Z,19.50
2022-10-12T18:47:41.245Z,19.50
2022-10-12T18:50:10.453Z,19.50
2022-10-12T18:52:38.691Z,19.50
2022-10-12T18:55:07.578Z,19.50
2022-10-12T18:57:39.995Z,19.40
2022-10-12T19:00:11.868Z,19.40
2022-10-12T19:02:40.082Z,19.40
2022-10-12T19:05:08.668Z,19.40
2022-10-12T19:07:36.873Z,19.30
2022-10-12T19:10:08.892Z,19.30
2022-10-12T19:12:37.266Z,19.30
2022-10-12T19:15:06.105Z,19.30
2022-10-12T19:17:35.757Z,19.20
2022-10-12T19:20:03.995Z,19.20
2022-10-12T19:22:32.525Z,19.20
2022-10-12T19:25:00.714Z,19.20
2022-10-12T19:27:28.971Z,19.20
2022-10-12T19:29:57.106Z,19.20
2022-10-12T19:32:25.233Z,19.10
2022-10-12T19:34:54.723Z,19.10
2022-10-12T19:37:23.014Z,19.10
2022-10-12T19:39:51.257Z,19.10
2022-10-12T19:42:19.858Z,19.10
2022-10-12T19:44:48.205Z,19.10
2022-10-12T19:47:16.365Z,19.00
2022-10-12T19:49:45.573Z,19.00
2022-10-12T19:52:15.444Z,19.00
2022-10-12T19:54:43.967Z,19.00
2022-10-12T19:57:12.237Z,19.00
2022-10-12T19:59:40.382Z,18.90
2022-10-12T20:02:09.319Z,18.90
2022-10-12T20:04:37.498Z,18.90
2022-10-12T20:07:05.592Z,18.90
2022-10-12T20:09:35.144Z,18.90
2022-10-12T20:12:03.281Z,18.80
2022-10-12T20:14:31.404Z,18.80
2022-10-12T20:16:59.497Z,18.80
2022-10-12T20:19:27.669Z,18.80
2022-10-12T20:21:55.737Z,18.70
2022-10-12T20:24:23.951Z,18.70
2022-10-12T20:26:53.472Z,18.70
2022-10-12T20:29:21.647Z,18.70
2022-10-12T20:31:49.803Z,18.70
2022-10-12T20:34:18.092Z,18.70
2022-10-12T20:36:46.586Z,18.60
2022-10-12T20:39:14.799Z,18.60
2022-10-12T20:41:43.449Z,18.60
2022-10-12T20:44:13.031Z,18.60
2022-10-12T20:46:41.324Z,18.60
2022-10-12T20:49:09.517Z,18.50
2022-10-12T20:51:40.003Z,18.50
2022-10-12T20:54:09.233Z,18.50
2022-10-12T20:56:41.448Z,18.50
2022-10-12T20:59:10.253Z,18.50
2022-10-12T21:01:39.797Z,18.50
2022-10-12T21:04:10.097Z,18.50
2022-10-12T21:06:39.191Z,18.50
2022-10-12T21:09:07.756Z,18.40
2022-10-12T21:11:36.298Z,18.40
2022-10-12T21:14:04.558Z,18.40
2022-10-12T21:16:33.402Z,18.40
2022-10-12T21:19:02.933Z,18.40
2022-10-12T21:21:31.135Z,18.40
2022-10-12T21:24:00.957Z,18.40
2022-10-12T21:26:31.366Z,18.30
2022-10-12T21:29:00.247Z,18.30
2022-10-12T21:31:32.311Z,18.30
2022-10-12T21:34:03.672Z,18.30
2022-10-12T21:36:33.240Z,18.30
2022-10-12T21:39:01.295Z,18.30
2022-10-12T21:41:30.992Z,18.20
2022-10-12T21:43:59.364Z,18.30
2022-10-12T21:46:30.348Z,18.20
2022-10-12T21:48:59.597Z,18.20
2022-10-12T21:51:30.758Z,18.20
2022-10-12T21:53:58.851Z,18.20
2022-10-12T21:56:28.187Z,18.20
2022-10-12T21:58:58.502Z,18.20
2022-10-12T22:01:28.753Z,18.20
2022-10-12T22:03:58.208Z,18.20
2022-10-12T22:06:29.288Z,18.10
2022-10-12T22:09:00.135Z,18.10
2022-10-12T22:11:29.780Z,18.10
2022-10-12T22:13:59.925Z,18.10
2022-10-12T22:16:29.214Z,18.10
2022-10-12T22:18:58.670Z,18.10
2022-10-12T22:21:28.639Z,18.00
2022-10-12T22:23:57.018Z,18.00
2022-10-12T22:26:25.532Z,18.00
2022-10-12T22:28:54.128Z,18.00
2022-10-12T22:31:24.363Z,18.00
2022-10-12T22:33:53.209Z,17.90
2022-10-12T22:40:03.989Z,18.00
2022-10-12T22:42:32.097Z,17.90
2022-10-12T22:45:00.171Z,17.90
2022-10-12T22:47:28.293Z,17.80
2022-10-12T22:49:56.347Z,17.80
2022-10-12T22:52:24.654Z,17.80
2022-10-12T22:54:52.753Z,17.80
2022-10-12T22:57:22.221Z,17.80
2022-10-12T22:59:51.446Z,17.80
2022-10-12T23:02:19.818Z,17.80
2022-10-12T23:04:49.044Z,17.80
2022-10-12T23:07:17.096Z,17.80
2022-10-12T23:09:45.304Z,17.80
2022-10-12T23:12:13.365Z,17.80
2022-10-12T23:14:44.328Z,17.70
2022-10-12T23:17:12.440Z,17.70
2022-10-12T23:19:40.577Z,17.70
2022-10-12T23:22:08.669Z,17.70
2022-10-12T23:24:36.745Z,17.70
2022-10-12T23:27:04.884Z,17.60
2022-10-12T23:29:32.963Z,17.60
2022-10-12T23:32:02.417Z,17.60
2022-10-12T23:34:30.664Z,17.60
2022-10-12T23:36:58.798Z,17.60
2022-10-12T23:39:26.994Z,17.60
2022-10-12T23:41:55.056Z,17.60
2022-10-12T23:44:23.304Z,17.60
2022-10-12T23:46:51.398Z,17.60
2022-10-12T23:49:20.981Z,17.60
2022-10-12T23:51:49.261Z,17.50
2022-10-12T23:54:17.389Z,17.50
2022-10-12T23:56:45.444Z,17.50
2022-10-12T23:59:13.542Z,17.40
